sensor_id;sensor_type;location;lat;lon;timestamp;P1;durP1;ratioP1;P2;durP2;ratioP2
55655;SDS011;41530;52.382;5.270;2023-03-14T00:00:16;10.73;;;2.38;;
55655;SDS011;41530;52.382;5.270;2023-03-14T00:02:43;9.40;;;2.30;;
55655;SDS011;41530;52.382;5.270;2023-03-14T00:05:10;10.32;;;2.25;;
55655;SDS011;41530;52.382;5.270;2023-03-14T00:07:37;16.25;;;2.67;;
55655;SDS011;41530;52.382;5.270;2023-03-14T00:10:06;14.25;;;2.50;;
55655;SDS011;41530;52.382;5.270;2023-03-14T00:12:39;13.48;;;2.15;;
55655;SDS011;41530;52.382;5.270;2023-03-14T00:15:07;11.23;;;2.22;;
55655;SDS011;41530;52.382;5.270;2023-03-14T00:17:35;11.38;;;2.05;;
55655;SDS011;41530;52.382;5.270;2023-03-14T00:20:03;12.05;;;2.10;;
55655;SDS011;41530;52.382;5.270;2023-03-14T00:22:34;12.40;;;2.40;;
55655;SDS011;41530;52.382;5.270;2023-03-14T00:25:02;10.25;;;2.35;;
55655;SDS011;41530;52.382;5.270;2023-03-14T00:27:30;14.68;;;2.22;;
55655;SDS011;41530;52.382;5.270;2023-03-14T00:29:57;8.63;;;2.20;;
55655;SDS011;41530;52.382;5.270;2023-03-14T00:32:23;11.52;;;1.73;;
55655;SDS011;41530;52.382;5.270;2023-03-14T00:34:50;10.43;;;2.03;;
55655;SDS011;41530;52.382;5.270;2023-03-14T00:37:17;12.63;;;1.75;;
55655;SDS011;41530;52.382;5.270;2023-03-14T00:39:43;12.10;;;2.38;;
55655;SDS011;41530;52.382;5.270;2023-03-14T00:42:10;8.27;;;1.85;;
55655;SDS011;41530;52.382;5.270;2023-03-14T00:44:37;11.23;;;2.00;;
55655;SDS011;41530;52.382;5.270;2023-03-14T00:47:03;9.80;;;1.63;;
55655;SDS011;41530;52.382;5.270;2023-03-14T00:49:30;7.03;;;1.60;;
55655;SDS011;41530;52.382;5.270;2023-03-14T00:51:57;10.10;;;1.73;;
55655;SDS011;41530;52.382;5.270;2023-03-14T00:54:23;4.85;;;1.50;;
55655;SDS011;41530;52.382;5.270;2023-03-14T00:56:50;6.50;;;1.70;;
55655;SDS011;41530;52.382;5.270;2023-03-14T00:59:16;6.22;;;1.52;;
55655;SDS011;41530;52.382;5.270;2023-03-14T01:01:43;7.00;;;1.50;;
55655;SDS011;41530;52.382;5.270;2023-03-14T01:04:10;10.18;;;1.70;;
55655;SDS011;41530;52.382;5.270;2023-03-14T01:06:36;4.30;;;1.30;;
55655;SDS011;41530;52.382;5.270;2023-03-14T01:09:03;8.90;;;1.50;;
55655;SDS011;41530;52.382;5.270;2023-03-14T01:11:31;10.25;;;1.33;;
55655;SDS011;41530;52.382;5.270;2023-03-14T01:13:59;5.38;;;1.17;;
55655;SDS011;41530;52.382;5.270;2023-03-14T01:16:27;5.47;;;1.27;;
55655;SDS011;41530;52.382;5.270;2023-03-14T01:18:57;6.97;;;1.50;;
55655;SDS011;41530;52.382;5.270;2023-03-14T01:21:31;11.65;;;1.50;;
55655;SDS011;41530;52.382;5.270;2023-03-14T01:23:59;7.10;;;1.50;;
55655;SDS011;41530;52.382;5.270;2023-03-14T01:26:28;5.20;;;1.20;;
55655;SDS011;41530;52.382;5.270;2023-03-14T01:28:57;7.25;;;1.30;;
55655;SDS011;41530;52.382;5.270;2023-03-14T01:31:24;5.80;;;1.30;;
55655;SDS011;41530;52.382;5.270;2023-03-14T01:33:52;5.55;;;1.23;;
55655;SDS011;41530;52.382;5.270;2023-03-14T01:36:19;6.18;;;1.27;;
55655;SDS011;41530;52.382;5.270;2023-03-14T01:38:46;4.32;;;1.05;;
55655;SDS011;41530;52.382;5.270;2023-03-14T01:41:14;6.22;;;1.42;;
55655;SDS011;41530;52.382;5.270;2023-03-14T01:43:42;10.45;;;1.60;;
55655;SDS011;41530;52.382;5.270;2023-03-14T01:51:18;6.47;;;1.30;;
55655;SDS011;41530;52.382;5.270;2023-03-14T01:54:02;10.07;;;1.42;;
55655;SDS011;41530;52.382;5.270;2023-03-14T01:59:01;3.85;;;1.20;;
55655;SDS011;41530;52.382;5.270;2023-03-14T02:01:32;3.65;;;1.50;;
55655;SDS011;41530;52.382;5.270;2023-03-14T02:04:01;6.53;;;1.40;;
55655;SDS011;41530;52.382;5.270;2023-03-14T02:06:31;4.32;;;1.33;;
55655;SDS011;41530;52.382;5.270;2023-03-14T02:09:04;6.65;;;1.42;;
55655;SDS011;41530;52.382;5.270;2023-03-14T02:11:30;10.48;;;1.67;;
55655;SDS011;41530;52.382;5.270;2023-03-14T02:13:57;10.75;;;1.58;;
55655;SDS011;41530;52.382;5.270;2023-03-14T02:16:25;6.47;;;1.30;;
55655;SDS011;41530;52.382;5.270;2023-03-14T02:18:52;7.25;;;1.27;;
55655;SDS011;41530;52.382;5.270;2023-03-14T02:27:16;8.88;;;1.50;;
55655;SDS011;41530;52.382;5.270;2023-03-14T02:29:29;4.85;;;1.23;;
55655;SDS011;41530;52.382;5.270;2023-03-14T02:31:58;8.02;;;1.50;;
55655;SDS011;41530;52.382;5.270;2023-03-14T02:34:25;6.70;;;1.30;;
55655;SDS011;41530;52.382;5.270;2023-03-14T02:36:52;5.20;;;1.40;;
55655;SDS011;41530;52.382;5.270;2023-03-14T02:39:24;5.45;;;1.40;;
55655;SDS011;41530;52.382;5.270;2023-03-14T02:41:56;8.68;;;1.40;;
55655;SDS011;41530;52.382;5.270;2023-03-14T02:44:23;7.30;;;1.45;;
55655;SDS011;41530;52.382;5.270;2023-03-14T02:46:50;6.65;;;1.60;;
55655;SDS011;41530;52.382;5.270;2023-03-14T02:49:17;6.00;;;1.40;;
55655;SDS011;41530;52.382;5.270;2023-03-14T02:51:44;7.93;;;1.38;;
55655;SDS011;41530;52.382;5.270;2023-03-14T02:54:12;5.60;;;1.20;;
55655;SDS011;41530;52.382;5.270;2023-03-14T02:56:40;7.50;;;1.60;;
55655;SDS011;41530;52.382;5.270;2023-03-14T02:59:07;9.57;;;1.55;;
55655;SDS011;41530;52.382;5.270;2023-03-14T03:01:33;6.03;;;1.52;;
55655;SDS011;41530;52.382;5.270;2023-03-14T03:04:00;7.60;;;1.38;;
55655;SDS011;41530;52.382;5.270;2023-03-14T03:06:27;6.07;;;1.33;;
55655;SDS011;41530;52.382;5.270;2023-03-14T03:08:53;12.57;;;1.25;;
55655;SDS011;41530;52.382;5.270;2023-03-14T03:11:20;4.72;;;1.02;;
55655;SDS011;41530;52.382;5.270;2023-03-14T03:13:47;8.52;;;1.38;;
55655;SDS011;41530;52.382;5.270;2023-03-14T03:16:13;9.32;;;1.48;;
55655;SDS011;41530;52.382;5.270;2023-03-14T03:18:41;7.45;;;1.20;;
55655;SDS011;41530;52.382;5.270;2023-03-14T03:21:08;5.88;;;1.30;;
55655;SDS011;41530;52.382;5.270;2023-03-14T03:23:35;5.93;;;1.40;;
55655;SDS011;41530;52.382;5.270;2023-03-14T03:26:02;6.28;;;1.40;;
55655;SDS011;41530;52.382;5.270;2023-03-14T03:28:29;5.22;;;1.20;;
55655;SDS011;41530;52.382;5.270;2023-03-14T03:30:55;3.67;;;1.00;;
55655;SDS011;41530;52.382;5.270;2023-03-14T03:33:22;2.95;;;0.90;;
55655;SDS011;41530;52.382;5.270;2023-03-14T03:35:50;10.55;;;1.30;;
55655;SDS011;41530;52.382;5.270;2023-03-14T03:38:18;10.07;;;1.30;;
55655;SDS011;41530;52.382;5.270;2023-03-14T03:40:46;6.10;;;1.02;;
55655;SDS011;41530;52.382;5.270;2023-03-14T03:43:12;6.32;;;1.40;;
55655;SDS011;41530;52.382;5.270;2023-03-14T03:45:39;6.93;;;1.10;;
55655;SDS011;41530;52.382;5.270;2023-03-14T03:48:06;6.65;;;1.30;;
55655;SDS011;41530;52.382;5.270;2023-03-14T03:50:33;8.65;;;1.58;;
55655;SDS011;41530;52.382;5.270;2023-03-14T03:52:59;8.50;;;1.20;;
55655;SDS011;41530;52.382;5.270;2023-03-14T03:55:26;5.75;;;1.30;;
55655;SDS011;41530;52.382;5.270;2023-03-14T03:57:54;5.57;;;0.95;;
55655;SDS011;41530;52.382;5.270;2023-03-14T04:00:21;4.80;;;1.20;;
55655;SDS011;41530;52.382;5.270;2023-03-14T04:02:47;5.28;;;1.30;;
55655;SDS011;41530;52.382;5.270;2023-03-14T04:05:14;5.50;;;1.13;;
55655;SDS011;41530;52.382;5.270;2023-03-14T04:07:41;3.30;;;0.80;;
55655;SDS011;41530;52.382;5.270;2023-03-14T04:10:07;8.52;;;1.42;;
55655;SDS011;41530;52.382;5.270;2023-03-14T04:12:34;5.82;;;1.10;;
55655;SDS011;41530;52.382;5.270;2023-03-14T04:15:01;7.97;;;1.55;;
55655;SDS011;41530;52.382;5.270;2023-03-14T04:17:28;4.28;;;1.17;;
55655;SDS011;41530;52.382;5.270;2023-03-14T04:19:54;2.80;;;1.15;;
55655;SDS011;41530;52.382;5.270;2023-03-14T04:22:21;7.18;;;1.17;;
55655;SDS011;41530;52.382;5.270;2023-03-14T04:24:47;4.05;;;1.00;;
55655;SDS011;41530;52.382;5.270;2023-03-14T04:27:14;5.25;;;1.02;;
55655;SDS011;41530;52.382;5.270;2023-03-14T04:29:44;9.52;;;1.20;;
55655;SDS011;41530;52.382;5.270;2023-03-14T04:32:11;6.15;;;1.30;;
55655;SDS011;41530;52.382;5.270;2023-03-14T04:34:37;5.07;;;1.08;;
55655;SDS011;41530;52.382;5.270;2023-03-14T04:37:04;5.05;;;1.13;;
55655;SDS011;41530;52.382;5.270;2023-03-14T04:39:30;6.60;;;1.27;;
55655;SDS011;41530;52.382;5.270;2023-03-14T04:41:57;10.65;;;1.33;;
55655;SDS011;41530;52.382;5.270;2023-03-14T04:44:23;5.70;;;1.10;;
55655;SDS011;41530;52.382;5.270;2023-03-14T04:46:50;5.10;;;1.23;;
55655;SDS011;41530;52.382;5.270;2023-03-14T04:49:17;9.55;;;1.38;;
55655;SDS011;41530;52.382;5.270;2023-03-14T04:51:43;7.07;;;1.35;;
55655;SDS011;41530;52.382;5.270;2023-03-14T04:54:10;4.95;;;1.48;;
55655;SDS011;41530;52.382;5.270;2023-03-14T04:56:37;5.03;;;1.23;;
55655;SDS011;41530;52.382;5.270;2023-03-14T04:59:03;8.93;;;1.70;;
55655;SDS011;41530;52.382;5.270;2023-03-14T05:01:30;7.63;;;1.60;;
55655;SDS011;41530;52.382;5.270;2023-03-14T05:03:57;5.97;;;1.30;;
55655;SDS011;41530;52.382;5.270;2023-03-14T05:06:24;5.30;;;1.17;;
55655;SDS011;41530;52.382;5.270;2023-03-14T05:08:50;6.38;;;1.20;;
55655;SDS011;41530;52.382;5.270;2023-03-14T05:11:17;7.18;;;1.52;;
55655;SDS011;41530;52.382;5.270;2023-03-14T05:13:44;6.57;;;1.52;;
55655;SDS011;41530;52.382;5.270;2023-03-14T05:16:10;6.22;;;1.40;;
55655;SDS011;41530;52.382;5.270;2023-03-14T05:18:37;5.00;;;1.10;;
55655;SDS011;41530;52.382;5.270;2023-03-14T05:21:04;8.57;;;1.30;;
55655;SDS011;41530;52.382;5.270;2023-03-14T05:23:31;3.70;;;1.27;;
55655;SDS011;41530;52.382;5.270;2023-03-14T05:25:57;5.20;;;1.20;;
55655;SDS011;41530;52.382;5.270;2023-03-14T05:28:24;6.25;;;1.17;;
55655;SDS011;41530;52.382;5.270;2023-03-14T05:30:51;4.55;;;1.20;;
55655;SDS011;41530;52.382;5.270;2023-03-14T05:33:17;4.38;;;1.20;;
55655;SDS011;41530;52.382;5.270;2023-03-14T05:35:44;9.25;;;1.77;;
55655;SDS011;41530;52.382;5.270;2023-03-14T05:38:10;5.25;;;1.27;;
55655;SDS011;41530;52.382;5.270;2023-03-14T05:40:37;4.13;;;0.98;;
55655;SDS011;41530;52.382;5.270;2023-03-14T05:43:04;5.15;;;1.25;;
55655;SDS011;41530;52.382;5.270;2023-03-14T05:45:30;5.03;;;1.23;;
55655;SDS011;41530;52.382;5.270;2023-03-14T05:47:59;2.92;;;1.20;;
55655;SDS011;41530;52.382;5.270;2023-03-14T05:50:26;6.45;;;1.10;;
55655;SDS011;41530;52.382;5.270;2023-03-14T05:52:53;5.97;;;1.23;;
55655;SDS011;41530;52.382;5.270;2023-03-14T05:55:19;5.63;;;1.10;;
55655;SDS011;41530;52.382;5.270;2023-03-14T05:57:46;3.55;;;1.05;;
55655;SDS011;41530;52.382;5.270;2023-03-14T06:00:12;4.25;;;1.00;;
55655;SDS011;41530;52.382;5.270;2023-03-14T06:02:39;3.55;;;1.70;;
55655;SDS011;41530;52.382;5.270;2023-03-14T06:05:06;6.25;;;1.52;;
55655;SDS011;41530;52.382;5.270;2023-03-14T06:07:33;5.15;;;1.00;;
55655;SDS011;41530;52.382;5.270;2023-03-14T06:10:00;4.85;;;1.25;;
55655;SDS011;41530;52.382;5.270;2023-03-14T06:12:27;9.82;;;1.13;;
55655;SDS011;41530;52.382;5.270;2023-03-14T06:14:54;4.90;;;1.13;;
55655;SDS011;41530;52.382;5.270;2023-03-14T06:17:21;2.80;;;1.00;;
55655;SDS011;41530;52.382;5.270;2023-03-14T06:19:47;3.65;;;0.85;;
55655;SDS011;41530;52.382;5.270;2023-03-14T06:22:14;3.47;;;1.15;;
55655;SDS011;41530;52.382;5.270;2023-03-14T06:24:41;10.30;;;0.85;;
55655;SDS011;41530;52.382;5.270;2023-03-14T06:27:07;3.65;;;0.70;;
55655;SDS011;41530;52.382;5.270;2023-03-14T06:29:34;3.03;;;0.80;;
55655;SDS011;41530;52.382;5.270;2023-03-14T06:32:00;5.03;;;0.75;;
55655;SDS011;41530;52.382;5.270;2023-03-14T06:34:27;1.75;;;0.65;;
55655;SDS011;41530;52.382;5.270;2023-03-14T06:36:53;2.38;;;0.60;;
55655;SDS011;41530;52.382;5.270;2023-03-14T06:39:20;3.45;;;0.60;;
55655;SDS011;41530;52.382;5.270;2023-03-14T06:41:47;2.50;;;0.50;;
55655;SDS011;41530;52.382;5.270;2023-03-14T06:44:13;1.95;;;0.40;;
55655;SDS011;41530;52.382;5.270;2023-03-14T06:46:40;1.80;;;0.70;;
55655;SDS011;41530;52.382;5.270;2023-03-14T06:49:06;4.53;;;0.60;;
55655;SDS011;41530;52.382;5.270;2023-03-14T06:51:33;2.65;;;0.60;;
55655;SDS011;41530;52.382;5.270;2023-03-14T06:54:00;2.45;;;0.52;;
55655;SDS011;41530;52.382;5.270;2023-03-14T06:56:26;2.15;;;0.60;;
55655;SDS011;41530;52.382;5.270;2023-03-14T06:58:53;3.15;;;0.50;;
55655;SDS011;41530;52.382;5.270;2023-03-14T07:01:21;2.25;;;0.50;;
55655;SDS011;41530;52.382;5.270;2023-03-14T07:03:51;2.58;;;0.50;;
55655;SDS011;41530;52.382;5.270;2023-03-14T07:06:18;3.08;;;0.52;;
55655;SDS011;41530;52.382;5.270;2023-03-14T07:08:44;2.30;;;0.65;;
55655;SDS011;41530;52.382;5.270;2023-03-14T07:11:11;1.77;;;0.40;;
55655;SDS011;41530;52.382;5.270;2023-03-14T07:13:38;3.30;;;0.70;;
55655;SDS011;41530;52.382;5.270;2023-03-14T07:16:06;1.60;;;0.55;;
55655;SDS011;41530;52.382;5.270;2023-03-14T07:18:33;1.00;;;0.52;;
55655;SDS011;41530;52.382;5.270;2023-03-14T07:20:59;1.25;;;0.70;;
55655;SDS011;41530;52.382;5.270;2023-03-14T07:23:26;0.85;;;0.40;;
55655;SDS011;41530;52.382;5.270;2023-03-14T07:25:53;1.48;;;0.52;;
55655;SDS011;41530;52.382;5.270;2023-03-14T07:28:20;5.28;;;0.70;;
55655;SDS011;41530;52.382;5.270;2023-03-14T07:30:47;5.28;;;0.70;;
55655;SDS011;41530;52.382;5.270;2023-03-14T07:33:14;4.07;;;0.90;;
55655;SDS011;41530;52.382;5.270;2023-03-14T07:35:41;5.43;;;1.00;;
55655;SDS011;41530;52.382;5.270;2023-03-14T07:38:07;4.85;;;0.80;;
55655;SDS011;41530;52.382;5.270;2023-03-14T07:40:34;1.92;;;0.70;;
55655;SDS011;41530;52.382;5.270;2023-03-14T07:43:01;4.93;;;1.13;;
55655;SDS011;41530;52.382;5.270;2023-03-14T07:45:27;3.38;;;0.80;;
55655;SDS011;41530;52.382;5.270;2023-03-14T07:47:54;6.43;;;1.13;;
55655;SDS011;41530;52.382;5.270;2023-03-14T07:50:24;7.43;;;1.23;;
55655;SDS011;41530;52.382;5.270;2023-03-14T07:52:51;5.20;;;1.27;;
55655;SDS011;41530;52.382;5.270;2023-03-14T07:55:19;7.88;;;1.42;;
55655;SDS011;41530;52.382;5.270;2023-03-14T07:57:47;3.33;;;0.85;;
55655;SDS011;41530;52.382;5.270;2023-03-14T08:00:14;2.45;;;0.90;;
55655;SDS011;41530;52.382;5.270;2023-03-14T08:02:41;2.55;;;0.85;;
55655;SDS011;41530;52.382;5.270;2023-03-14T08:05:08;9.40;;;1.33;;
55655;SDS011;41530;52.382;5.270;2023-03-14T08:07:35;4.68;;;1.30;;
55655;SDS011;41530;52.382;5.270;2023-03-14T08:10:02;6.10;;;1.20;;
55655;SDS011;41530;52.382;5.270;2023-03-14T08:12:29;6.43;;;1.48;;
55655;SDS011;41530;52.382;5.270;2023-03-14T08:14:55;4.38;;;1.00;;
55655;SDS011;41530;52.382;5.270;2023-03-14T08:17:22;11.15;;;1.45;;
55655;SDS011;41530;52.382;5.270;2023-03-14T08:19:48;6.88;;;1.17;;
55655;SDS011;41530;52.382;5.270;2023-03-14T08:22:15;6.95;;;1.35;;
55655;SDS011;41530;52.382;5.270;2023-03-14T08:24:45;8.60;;;1.50;;
55655;SDS011;41530;52.382;5.270;2023-03-14T08:27:11;7.00;;;1.45;;
55655;SDS011;41530;52.382;5.270;2023-03-14T08:29:38;5.90;;;1.48;;
55655;SDS011;41530;52.382;5.270;2023-03-14T08:32:06;8.95;;;1.17;;
55655;SDS011;41530;52.382;5.270;2023-03-14T08:34:33;4.93;;;1.30;;
55655;SDS011;41530;52.382;5.270;2023-03-14T08:37:00;4.40;;;1.10;;
55655;SDS011;41530;52.382;5.270;2023-03-14T08:39:29;3.83;;;1.20;;
55655;SDS011;41530;52.382;5.270;2023-03-14T08:41:56;3.55;;;1.25;;
55655;SDS011;41530;52.382;5.270;2023-03-14T08:44:22;4.90;;;1.05;;
55655;SDS011;41530;52.382;5.270;2023-03-14T08:46:49;3.60;;;0.90;;
55655;SDS011;41530;52.382;5.270;2023-03-14T08:49:15;5.13;;;1.10;;
55655;SDS011;41530;52.382;5.270;2023-03-14T08:51:42;5.03;;;1.20;;
55655;SDS011;41530;52.382;5.270;2023-03-14T08:54:09;4.13;;;1.02;;
55655;SDS011;41530;52.382;5.270;2023-03-14T08:56:37;3.58;;;0.80;;
55655;SDS011;41530;52.382;5.270;2023-03-14T08:59:06;3.83;;;1.10;;
55655;SDS011;41530;52.382;5.270;2023-03-14T09:01:34;4.80;;;1.20;;
55655;SDS011;41530;52.382;5.270;2023-03-14T09:04:01;3.53;;;0.80;;
55655;SDS011;41530;52.382;5.270;2023-03-14T09:06:27;5.78;;;1.63;;
55655;SDS011;41530;52.382;5.270;2023-03-14T09:08:54;2.55;;;1.00;;
55655;SDS011;41530;52.382;5.270;2023-03-14T09:11:20;4.32;;;1.08;;
55655;SDS011;41530;52.382;5.270;2023-03-14T09:13:47;5.70;;;0.82;;
55655;SDS011;41530;52.382;5.270;2023-03-14T09:16:15;4.35;;;1.00;;
55655;SDS011;41530;52.382;5.270;2023-03-14T09:18:42;4.25;;;1.10;;
55655;SDS011;41530;52.382;5.270;2023-03-14T09:21:08;6.28;;;1.25;;
55655;SDS011;41530;52.382;5.270;2023-03-14T09:23:35;5.75;;;1.15;;
55655;SDS011;41530;52.382;5.270;2023-03-14T09:26:01;2.95;;;0.93;;
55655;SDS011;41530;52.382;5.270;2023-03-14T09:28:28;3.00;;;1.25;;
55655;SDS011;41530;52.382;5.270;2023-03-14T09:30:55;6.90;;;1.33;;
55655;SDS011;41530;52.382;5.270;2023-03-14T09:33:21;3.92;;;0.88;;
55655;SDS011;41530;52.382;5.270;2023-03-14T09:35:48;3.17;;;1.25;;
55655;SDS011;41530;52.382;5.270;2023-03-14T09:38:15;3.38;;;0.90;;
55655;SDS011;41530;52.382;5.270;2023-03-14T09:40:42;1.85;;;0.98;;
55655;SDS011;41530;52.382;5.270;2023-03-14T09:43:10;4.15;;;0.90;;
55655;SDS011;41530;52.382;5.270;2023-03-14T09:45:40;4.30;;;0.88;;
55655;SDS011;41530;52.382;5.270;2023-03-14T09:48:12;3.70;;;1.08;;
55655;SDS011;41530;52.382;5.270;2023-03-14T09:50:44;4.13;;;1.20;;
55655;SDS011;41530;52.382;5.270;2023-03-14T09:53:18;3.60;;;0.75;;
55655;SDS011;41530;52.382;5.270;2023-03-14T09:55:50;3.80;;;1.00;;
55655;SDS011;41530;52.382;5.270;2023-03-14T09:58:22;4.95;;;1.10;;
55655;SDS011;41530;52.382;5.270;2023-03-14T10:00:52;3.38;;;1.20;;
55655;SDS011;41530;52.382;5.270;2023-03-14T10:06:00;2.65;;;0.98;;
55655;SDS011;41530;52.382;5.270;2023-03-14T10:08:28;2.40;;;0.63;;
55655;SDS011;41530;52.382;5.270;2023-03-14T10:10:54;2.97;;;0.88;;
55655;SDS011;41530;52.382;5.270;2023-03-14T10:13:22;3.17;;;0.70;;
55655;SDS011;41530;52.382;5.270;2023-03-14T10:15:55;3.50;;;1.10;;
55655;SDS011;41530;52.382;5.270;2023-03-14T10:18:25;3.13;;;0.60;;
55655;SDS011;41530;52.382;5.270;2023-03-14T10:21:02;3.92;;;0.80;;
55655;SDS011;41530;52.382;5.270;2023-03-14T10:23:35;2.72;;;0.80;;
55655;SDS011;41530;52.382;5.270;2023-03-14T10:26:16;4.35;;;1.02;;
55655;SDS011;41530;52.382;5.270;2023-03-14T10:28:45;1.88;;;0.82;;
55655;SDS011;41530;52.382;5.270;2023-03-14T10:31:14;2.40;;;0.82;;
55655;SDS011;41530;52.382;5.270;2023-03-14T10:33:41;4.28;;;0.75;;
55655;SDS011;41530;52.382;5.270;2023-03-14T10:38:42;5.95;;;0.80;;
55655;SDS011;41530;52.382;5.270;2023-03-14T10:41:25;4.03;;;0.90;;
55655;SDS011;41530;52.382;5.270;2023-03-14T10:43:53;3.97;;;0.95;;
55655;SDS011;41530;52.382;5.270;2023-03-14T10:46:25;2.08;;;0.63;;
55655;SDS011;41530;52.382;5.270;2023-03-14T10:48:53;2.88;;;0.85;;
55655;SDS011;41530;52.382;5.270;2023-03-14T10:51:24;5.40;;;1.00;;
55655;SDS011;41530;52.382;5.270;2023-03-14T10:56:45;4.00;;;0.95;;
55655;SDS011;41530;52.382;5.270;2023-03-14T10:59:22;3.60;;;0.90;;
55655;SDS011;41530;52.382;5.270;2023-03-14T11:02:00;4.25;;;1.00;;
55655;SDS011;41530;52.382;5.270;2023-03-14T11:04:55;2.72;;;0.70;;
55655;SDS011;41530;52.382;5.270;2023-03-14T11:07:49;4.15;;;1.02;;
55655;SDS011;41530;52.382;5.270;2023-03-14T11:10:35;2.65;;;0.73;;
55655;SDS011;41530;52.382;5.270;2023-03-14T11:21:46;4.75;;;0.90;;
55655;SDS011;41530;52.382;5.270;2023-03-14T11:27:22;4.13;;;0.82;;
55655;SDS011;41530;52.382;5.270;2023-03-14T11:32:45;2.90;;;0.70;;
55655;SDS011;41530;52.382;5.270;2023-03-14T11:35:26;2.50;;;0.80;;
55655;SDS011;41530;52.382;5.270;2023-03-14T11:40:31;4.13;;;0.80;;
55655;SDS011;41530;52.382;5.270;2023-03-14T11:43:05;3.15;;;0.80;;
55655;SDS011;41530;52.382;5.270;2023-03-14T11:45:34;4.40;;;0.95;;
55655;SDS011;41530;52.382;5.270;2023-03-14T11:50:32;3.10;;;0.70;;
55655;SDS011;41530;52.382;5.270;2023-03-14T11:53:08;2.58;;;0.50;;
55655;SDS011;41530;52.382;5.270;2023-03-14T11:55:39;2.38;;;0.75;;
55655;SDS011;41530;52.382;5.270;2023-03-14T12:00:50;1.65;;;0.57;;
55655;SDS011;41530;52.382;5.270;2023-03-14T12:03:33;2.53;;;0.73;;
55655;SDS011;41530;52.382;5.270;2023-03-14T12:06:09;3.67;;;0.77;;
55655;SDS011;41530;52.382;5.270;2023-03-14T12:08:49;1.52;;;0.60;;
55655;SDS011;41530;52.382;5.270;2023-03-14T12:11:21;3.30;;;1.02;;
55655;SDS011;41530;52.382;5.270;2023-03-14T12:13:50;1.80;;;0.70;;
55655;SDS011;41530;52.382;5.270;2023-03-14T12:19:13;2.58;;;0.63;;
55655;SDS011;41530;52.382;5.270;2023-03-14T12:21:51;2.83;;;0.90;;
55655;SDS011;41530;52.382;5.270;2023-03-14T12:24:31;3.00;;;0.70;;
55655;SDS011;41530;52.382;5.270;2023-03-14T12:27:02;2.17;;;0.75;;
55655;SDS011;41530;52.382;5.270;2023-03-14T12:29:30;1.77;;;0.75;;
55655;SDS011;41530;52.382;5.270;2023-03-14T12:34:33;1.10;;;0.55;;
55655;SDS011;41530;52.382;5.270;2023-03-14T12:37:52;2.75;;;0.63;;
55655;SDS011;41530;52.382;5.270;2023-03-14T12:40:06;1.88;;;0.77;;
55655;SDS011;41530;52.382;5.270;2023-03-14T12:42:46;1.35;;;0.57;;
55655;SDS011;41530;52.382;5.270;2023-03-14T12:45:30;1.17;;;0.50;;
55655;SDS011;41530;52.382;5.270;2023-03-14T12:48:09;2.35;;;0.68;;
55655;SDS011;41530;52.382;5.270;2023-03-14T12:51:05;1.65;;;0.60;;
55655;SDS011;41530;52.382;5.270;2023-03-14T12:56:27;2.25;;;0.60;;
55655;SDS011;41530;52.382;5.270;2023-03-14T13:07:13;1.67;;;0.50;;
55655;SDS011;41530;52.382;5.270;2023-03-14T13:12:42;2.35;;;0.60;;
55655;SDS011;41530;52.382;5.270;2023-03-14T13:17:53;2.65;;;0.70;;
55655;SDS011;41530;52.382;5.270;2023-03-14T13:20:29;3.55;;;0.68;;
55655;SDS011;41530;52.382;5.270;2023-03-14T13:22:58;2.67;;;0.52;;
55655;SDS011;41530;52.382;5.270;2023-03-14T13:25:28;1.25;;;0.50;;
55655;SDS011;41530;52.382;5.270;2023-03-14T13:27:56;2.88;;;0.70;;
55655;SDS011;41530;52.382;5.270;2023-03-14T13:30:27;2.58;;;0.60;;
55655;SDS011;41530;52.382;5.270;2023-03-14T13:33:03;1.13;;;0.60;;
55655;SDS011;41530;52.382;5.270;2023-03-14T13:35:38;1.92;;;0.68;;
55655;SDS011;41530;52.382;5.270;2023-03-14T13:38:14;3.13;;;0.68;;
55655;SDS011;41530;52.382;5.270;2023-03-14T13:40:43;2.78;;;0.70;;
55655;SDS011;41530;52.382;5.270;2023-03-14T13:43:19;2.00;;;0.50;;
55655;SDS011;41530;52.382;5.270;2023-03-14T13:45:55;3.88;;;0.60;;
55655;SDS011;41530;52.382;5.270;2023-03-14T13:48:28;2.85;;;0.68;;
55655;SDS011;41530;52.382;5.270;2023-03-14T13:50:58;1.40;;;0.60;;
55655;SDS011;41530;52.382;5.270;2023-03-14T13:53:28;1.67;;;0.52;;
55655;SDS011;41530;52.382;5.270;2023-03-14T13:55:55;2.33;;;0.70;;
55655;SDS011;41530;52.382;5.270;2023-03-14T13:58:25;1.35;;;0.60;;
55655;SDS011;41530;52.382;5.270;2023-03-14T14:01:04;1.83;;;0.50;;
55655;SDS011;41530;52.382;5.270;2023-03-14T14:03:39;1.10;;;0.50;;
55655;SDS011;41530;52.382;5.270;2023-03-14T14:06:16;1.23;;;0.43;;
55655;SDS011;41530;52.382;5.270;2023-03-14T14:08:50;1.50;;;0.43;;
55655;SDS011;41530;52.382;5.270;2023-03-14T14:11:19;1.92;;;0.52;;
55655;SDS011;41530;52.382;5.270;2023-03-14T14:14:12;2.25;;;0.47;;
55655;SDS011;41530;52.382;5.270;2023-03-14T14:16:43;3.00;;;0.60;;
55655;SDS011;41530;52.382;5.270;2023-03-14T14:19:12;1.27;;;0.50;;
55655;SDS011;41530;52.382;5.270;2023-03-14T14:21:40;0.63;;;0.38;;
55655;SDS011;41530;52.382;5.270;2023-03-14T14:24:08;0.93;;;0.52;;
55655;SDS011;41530;52.382;5.270;2023-03-14T14:27:23;3.45;;;0.45;;
55655;SDS011;41530;52.382;5.270;2023-03-14T14:30:35;1.02;;;0.50;;
55655;SDS011;41530;52.382;5.270;2023-03-14T14:32:46;1.13;;;0.50;;
55655;SDS011;41530;52.382;5.270;2023-03-14T14:35:34;0.82;;;0.45;;
55655;SDS011;41530;52.382;5.270;2023-03-14T14:38:01;2.10;;;0.50;;
55655;SDS011;41530;52.382;5.270;2023-03-14T14:40:47;1.50;;;0.50;;
55655;SDS011;41530;52.382;5.270;2023-03-14T14:43:18;1.33;;;0.60;;
55655;SDS011;41530;52.382;5.270;2023-03-14T14:45:51;1.67;;;0.70;;
55655;SDS011;41530;52.382;5.270;2023-03-14T14:48:21;1.33;;;0.50;;
55655;SDS011;41530;52.382;5.270;2023-03-14T14:55:59;1.45;;;0.45;;
55655;SDS011;41530;52.382;5.270;2023-03-14T14:58:33;2.38;;;0.50;;
55655;SDS011;41530;52.382;5.270;2023-03-14T15:03:37;2.38;;;0.52;;
55655;SDS011;41530;52.382;5.270;2023-03-14T15:06:04;0.88;;;0.40;;
55655;SDS011;41530;52.382;5.270;2023-03-14T15:08:31;2.83;;;0.60;;
55655;SDS011;41530;52.382;5.270;2023-03-14T15:10:58;1.80;;;0.50;;
55655;SDS011;41530;52.382;5.270;2023-03-14T15:13:25;1.10;;;0.57;;
55655;SDS011;41530;52.382;5.270;2023-03-14T15:15:51;1.33;;;0.45;;
55655;SDS011;41530;52.382;5.270;2023-03-14T15:18:23;1.38;;;0.60;;
55655;SDS011;41530;52.382;5.270;2023-03-14T15:20:53;1.70;;;0.52;;
55655;SDS011;41530;52.382;5.270;2023-03-14T15:23:20;1.75;;;0.47;;
55655;SDS011;41530;52.382;5.270;2023-03-14T15:25:48;2.28;;;0.40;;
55655;SDS011;41530;52.382;5.270;2023-03-14T15:28:23;1.45;;;0.32;;
55655;SDS011;41530;52.382;5.270;2023-03-14T15:30:57;2.30;;;0.60;;
55655;SDS011;41530;52.382;5.270;2023-03-14T15:33:25;2.47;;;0.70;;
55655;SDS011;41530;52.382;5.270;2023-03-14T15:35:52;0.65;;;0.40;;
55655;SDS011;41530;52.382;5.270;2023-03-14T15:38:20;0.68;;;0.40;;
55655;SDS011;41530;52.382;5.270;2023-03-14T15:40:49;0.80;;;0.45;;
55655;SDS011;41530;52.382;5.270;2023-03-14T15:43:17;1.25;;;0.40;;
55655;SDS011;41530;52.382;5.270;2023-03-14T15:45:44;1.13;;;0.38;;
55655;SDS011;41530;52.382;5.270;2023-03-14T15:48:15;0.70;;;0.40;;
55655;SDS011;41530;52.382;5.270;2023-03-14T15:50:43;1.08;;;0.47;;
55655;SDS011;41530;52.382;5.270;2023-03-14T15:53:10;2.05;;;0.63;;
55655;SDS011;41530;52.382;5.270;2023-03-14T15:55:37;1.20;;;0.45;;
55655;SDS011;41530;52.382;5.270;2023-03-14T15:58:04;1.40;;;0.50;;
55655;SDS011;41530;52.382;5.270;2023-03-14T16:00:30;0.85;;;0.47;;
55655;SDS011;41530;52.382;5.270;2023-03-14T16:02:58;1.48;;;0.50;;
55655;SDS011;41530;52.382;5.270;2023-03-14T16:05:24;1.75;;;0.65;;
55655;SDS011;41530;52.382;5.270;2023-03-14T16:07:51;1.50;;;0.60;;
55655;SDS011;41530;52.382;5.270;2023-03-14T16:10:18;0.85;;;0.40;;